NASDAQ:NVEC - NVE Institutional Ownership

$69.84
-2.85 (-3.92 %)
(As of 07/18/2019 04:56 AM ET)
Today's Range
$67.25
Now: $69.84
$72.20
50-Day Range
$67.20
MA: $70.60
$74.10
52-Week Range
$66.35
Now: $69.84
$126.51
Volume16,500 shs
Average Volume18,190 shs
Market Capitalization$338.44 million
P/E Ratio23.85
Dividend Yield5.50%
Beta1.3

Institutional Ownership

Institutional Ownership Changes (13F Filings) for NVE (NASDAQ:NVEC)

Institutional Ownership Percentage: 78.49%

NVE (NASDAQ NVEC) Institutional Buying and Selling

Reporting DateHedge FundShares HeldMarket Value% of PortfolioQuarterly Change in SharesOwnership in Company
7/8/2019WINTON GROUP Ltd3,094$0.22M0.0%N/A0.064%Find SEC Filing in Google
6/16/2019Kayne Anderson Rudnick Investment Management LLC858,012$83.99M0.5%-0.9%17.691%Find SEC Filing in Google
5/13/2019Granite Investment Partners LLC7,624$0.75M0.0%+87.8%0.157%Find SEC Filing in Google
5/13/2019Institutional & Family Asset Management LLC400$39K0.0%+100.0%0.008%Find SEC Filing in Google
5/10/2019Connors Investor Services Inc.2,932$0.29M0.0%+5.4%0.061%Find SEC Filing in Google
5/10/2019Kayne Anderson Rudnick Investment Management LLC738,507$72.29M0.5%-14.7%15.240%Find SEC Filing in Google
5/8/2019Martingale Asset Management L P15,402$1.51M0.0%N/A0.318%Find SEC Filing in Google
5/8/2019Wasatch Advisors Inc.12,733$1.25M0.0%-72.1%0.263%Find SEC Filing in Google
5/2/2019Wedge Capital Management L L P NC16,971$1.66M0.0%+5.5%0.350%Find SEC Filing in Google
5/1/2019Cowen Prime Services LLC8,831$0.86M0.4%-4.3%0.182%Find SEC Filing in Google
4/30/2019Bridge City Capital LLC11,908$1.17M0.7%-1.0%0.246%Find SEC Filing in Google
4/30/2019Skylands Capital LLC2,850$0.28M0.0%N/A0.059%Find SEC Filing in Google
4/25/2019BNP Paribas Arbitrage SA999$98K0.0%+49,850.0%0.021%Find SEC Filing in Google
4/25/2019Los Angeles Capital Management & Equity Research Inc.25,562$2.50M0.0%+0.9%0.527%Find SEC Filing in Google
4/18/2019Conestoga Capital Advisors LLC436,435$42.72M1.2%+0.2%9.006%Find SEC Filing in Google
4/1/2019Deutsche Bank AG6,625$0.58M0.0%-34.0%0.137%Find SEC Filing in Google
2/26/2019Dimensional Fund Advisors LP126,093$11.04M0.0%+2.1%2.602%Find SEC Filing in Google
2/15/2019Millennium Management LLC4,196$0.37M0.0%+115.3%0.087%Find SEC Filing in Google
2/14/2019Ranger Investment Management L.P.39,652$3.47M0.3%+78.5%0.818%Find SEC Filing in Google
2/14/2019Metropolitan Life Insurance Co. NY1,513$0.13M0.0%+313.4%0.031%Find SEC Filing in Google
2/14/2019MetLife Investment Advisors LLC1,671$0.15M0.0%-55.5%0.034%Find SEC Filing in Google
2/14/2019D. E. Shaw & Co. Inc.2,877$0.25M0.0%-47.8%0.059%Find SEC Filing in Google
2/14/2019Bank of America Corp DE3,699$0.32M0.0%+70.0%0.076%Find SEC Filing in Google
2/14/2019Mairs & Power INC365,830$32.03M0.4%+17.6%7.549%Find SEC Filing in Google
2/13/2019Geode Capital Management LLC58,395$5.11M0.0%+8.0%1.205%Find SEC Filing in Google
2/13/2019Brown Advisory Inc.24,962$2.19M0.0%-29.1%0.515%Find SEC Filing in Google
2/13/2019Stifel Financial Corp16,219$1.41M0.0%+27.2%0.335%Find SEC Filing in Google
2/13/2019Dimensional Fund Advisors LP126,093$11.04M0.0%+2.1%2.602%Find SEC Filing in Google
2/13/2019Townsquare Capital LLC3,386$0.33M0.0%N/A0.070%Find SEC Filing in Google
2/12/2019Northern Trust Corp71,156$6.23M0.0%-2.6%1.468%Find SEC Filing in Google
2/12/2019Bahl & Gaynor Inc.10,560$0.92M0.0%-48.1%0.218%Find SEC Filing in Google
2/11/2019Los Angeles Capital Management & Equity Research Inc.25,332$2.22M0.0%-0.7%0.523%Find SEC Filing in Google
2/11/2019Bank of New York Mellon Corp55,611$4.87M0.0%-12.2%1.147%Find SEC Filing in Google
2/8/2019BlackRock Inc.350,867$30.72M0.0%+0.1%7.240%Find SEC Filing in Google
2/8/2019California Public Employees Retirement System14,490$1.27M0.0%+0.8%0.299%Find SEC Filing in Google
2/8/2019Mitsubishi UFJ Kokusai Asset Management Co. Ltd.1,302$0.11M0.0%N/A0.027%Find SEC Filing in Google
2/8/2019PNC Financial Services Group Inc.1,566$0.14M0.0%-37.5%0.032%Find SEC Filing in Google
2/7/2019First Trust Advisors LP7,122$0.62M0.0%-2.9%0.147%Find SEC Filing in Google
2/7/2019Prudential Financial Inc.12,769$1.12M0.0%+20.3%0.263%Find SEC Filing in Google
2/6/2019Comerica Bank10,900$1.02M0.0%+29.8%0.225%Find SEC Filing in Google
2/6/2019Kayne Anderson Rudnick Investment Management LLC865,605$75.78M0.5%-2.4%17.848%Find SEC Filing in Google
2/5/2019Chicago Equity Partners LLC9,710$0.85M0.0%N/A0.200%Find SEC Filing in Google
2/4/2019Isthmus Partners LLC12,121$1.06M0.3%+11.7%0.250%Find SEC Filing in Google
2/1/2019M&T Bank Corp8,075$0.71M0.0%+6.6%0.167%Find SEC Filing in Google
1/31/2019Rhumbline Advisers6,311$0.55M0.0%+47.1%0.130%Find SEC Filing in Google
1/31/2019Wedge Capital Management L L P NC16,079$1.41M0.0%+19.8%0.332%Find SEC Filing in Google
1/30/2019Bridge City Capital LLC12,029$1.05M0.7%+12.2%0.248%Find SEC Filing in Google
1/28/2019Quantamental Technologies LLC387$34K0.0%N/A0.008%Find SEC Filing in Google
1/28/2019Conestoga Capital Advisors LLC435,776$38.15M1.2%-1.5%8.985%Find SEC Filing in Google
1/25/2019Dorsey & Whitney Trust CO LLC7,180$0.63M0.1%+14.9%0.148%Find SEC Filing in Google
1/23/2019Strs Ohio6,600$0.58M0.0%-4.3%0.136%Find SEC Filing in Google
1/22/2019Cowen Prime Services LLC9,231$0.81M0.5%+5.7%0.191%Find SEC Filing in Google
1/1/2019TIAA CREF Investment Management LLC9,862$1.04M0.0%-3.4%0.204%Find SEC Filing in Google
1/1/2019Neuberger Berman Group LLC13,783$1.46M0.0%-3.6%0.285%Find SEC Filing in Google
12/13/2018Vanguard Group Inc220,841$23.38M0.0%+0.5%4.563%Find SEC Filing in Google
11/23/2018Vanguard Group Inc.220,841$23.38M0.0%+0.5%4.563%Find SEC Filing in Google
11/20/2018Morgan Stanley21,452$2.27M0.0%+20.1%0.443%Find SEC Filing in Google
11/16/2018Teachers Advisors LLC9,844$1.04M0.0%+8.6%0.203%Find SEC Filing in Google
11/15/2018AQR Capital Management LLC5,413$0.57M0.0%N/A0.112%Find SEC Filing in Google
11/15/2018MetLife Investment Advisors LLC3,752$0.40M0.0%+44.0%0.078%Find SEC Filing in Google
11/15/2018Man Group plc23,525$2.49M0.0%+4.4%0.486%Find SEC Filing in Google
11/13/2018Renaissance Technologies LLC109,000$11.54M0.0%+2.7%2.252%Find SEC Filing in Google
11/13/2018Dimensional Fund Advisors LP123,531$13.08M0.0%+13.6%2.552%Find SEC Filing in Google
11/13/2018Credit Suisse AG5,203$0.55M0.0%-30.3%0.108%Find SEC Filing in Google
11/9/2018Bahl & Gaynor Inc.20,330$2.15M0.0%-7.4%0.420%Find SEC Filing in Google
11/9/2018BlackRock Inc.350,595$37.12M0.0%+1.2%7.244%Find SEC Filing in Google
11/9/2018PNC Financial Services Group Inc.2,506$0.27M0.0%-21.3%0.052%Find SEC Filing in Google
11/9/2018Bank of New York Mellon Corp63,309$6.70M0.0%+1.0%1.308%Find SEC Filing in Google
11/8/2018Granite Investment Partners LLC4,060$0.43M0.0%-36.1%0.084%Find SEC Filing in Google
11/7/2018Prudential Financial Inc.10,617$1.12M0.0%+26.6%0.219%Find SEC Filing in Google
11/7/2018Wasatch Advisors Inc.50,802$5.38M0.1%-6.6%1.050%Find SEC Filing in Google
11/2/2018Cadence Capital Management LLC17,659$1.87M0.1%-18.7%0.365%Find SEC Filing in Google
11/2/2018Wells Fargo & Company MN160,878$17.03M0.0%+20.2%3.324%Find SEC Filing in Google
11/1/2018US Bancorp DE27,476$2.91M0.0%-3.8%0.568%Find SEC Filing in Google
10/25/2018Conestoga Capital Advisors LLC442,379$46.84M1.2%+15.8%9.140%Find SEC Filing in Google
10/25/2018First Trust Advisors LP7,338$0.78M0.0%N/A0.152%Find SEC Filing in Google
10/9/2018Atria Investments LLC5,081$0.54M0.0%+35.6%0.105%Find SEC Filing in Google
9/18/2018Northern Trust Corp71,494$8.71M0.0%+6.0%1.477%Find SEC Filing in Google
8/24/2018Bank of New York Mellon Corp62,709$7.64M0.0%-4.0%1.296%Find SEC Filing in Google
8/15/2018California Public Employees Retirement System15,477$1.89M0.0%-3.9%0.320%Find SEC Filing in Google
8/14/2018Bank of America Corp DE2,204$0.27M0.0%-35.5%0.046%Find SEC Filing in Google
8/13/2018Renaissance Technologies LLC106,100$12.92M0.0%-4.5%2.192%Find SEC Filing in Google
8/10/2018Great West Life Assurance Co. Can1,106$0.14M0.0%-30.9%0.023%Find SEC Filing in Google
8/10/2018Dimensional Fund Advisors LP108,766$13.25M0.0%+13.6%2.247%Find SEC Filing in Google
8/10/2018Brown Advisory Inc.35,217$4.29M0.0%N/A0.728%Find SEC Filing in Google
8/9/2018BlackRock Inc.346,334$42.18M0.0%+5.9%7.156%Find SEC Filing in Google
8/9/2018Cowen Prime Services LLC9,131$1.11M0.5%+5.8%0.189%Find SEC Filing in Google
8/9/2018Cadence Capital Management LLC21,717$2.65M0.2%+12.1%0.449%Find SEC Filing in Google
8/8/2018Keybank National Association OH2,156$0.26M0.0%-32.2%0.045%Find SEC Filing in Google
8/7/2018Strs Ohio6,900$0.84M0.0%-19.8%0.143%Find SEC Filing in Google
8/6/2018Bank of New York Mellon Corp62,709$7.64M0.0%-4.0%1.296%Find SEC Filing in Google
8/3/2018Sei Investments Co.1,500$0.18M0.0%N/A0.031%Find SEC Filing in Google
8/1/2018Wells Fargo & Company MN133,835$16.30M0.0%+14.6%2.765%Find SEC Filing in Google
7/31/2018Wedge Capital Management L L P NC13,583$1.65M0.0%-20.1%0.281%Find SEC Filing in Google
7/30/2018Aperio Group LLC2,385$0.29M0.0%-18.5%0.049%Find SEC Filing in Google
7/26/2018BB&T Corp1,664$0.20M0.0%N/A0.034%Find SEC Filing in Google
7/20/2018Conestoga Capital Advisors LLC381,922$46.51M1.5%+8.1%7.891%Find SEC Filing in Google
7/20/2018Cornerstone Wealth Management LLC12,241$100K0.0%N/A0.253%Find SEC Filing in Google
7/19/2018Nisa Investment Advisors LLC2,200$0.27M0.0%+2,100.0%0.045%Find SEC Filing in Google
7/14/2018Atria Investments LLC3,748$0.46M0.0%+28.9%0.077%Find SEC Filing in Google
(Data available from 1/1/2016 forward)
This page was last updated on 7/18/2019 by MarketBeat.com Staff

Featured Article: What is a Swap?

Enter your email address below to receive a concise daily summary of analysts' upgrades, downgrades and new coverage with MarketBeat.com's FREE daily email newsletter.

Yahoo Gemini Pixel